sensor_id;sensor_type;location;lat;lon;timestamp;pressure;altitude;pressure_sealevel;temperature;humidity
75996;BME280;64681;49.738;9.004;2023-08-24T00:02:02;99717.19;;;16.58;86.29
75996;BME280;64681;49.738;9.004;2023-08-24T00:04:28;99709.78;;;16.52;86.67
75996;BME280;64681;49.738;9.004;2023-08-24T00:06:54;99703.38;;;16.37;87.20
75996;BME280;64681;49.738;9.004;2023-08-24T00:09:20;99704.91;;;16.34;87.17
75996;BME280;64681;49.738;9.004;2023-08-24T00:11:45;99705.91;;;16.26;87.63
75996;BME280;64681;49.738;9.004;2023-08-24T00:14:11;99710.31;;;16.14;88.88
75996;BME280;64681;49.738;9.004;2023-08-24T00:16:37;99703.97;;;16.26;88.22
75996;BME280;64681;49.738;9.004;2023-08-24T00:19:03;99700.81;;;16.21;88.26
75996;BME280;64681;49.738;9.004;2023-08-24T00:21:28;99703.59;;;16.24;88.20
75996;BME280;64681;49.738;9.004;2023-08-24T00:23:54;99705.16;;;16.29;88.14
75996;BME280;64681;49.738;9.004;2023-08-24T00:26:20;99703.69;;;16.32;88.35
75996;BME280;64681;49.738;9.004;2023-08-24T00:28:46;99706.19;;;16.44;87.96
75996;BME280;64681;49.738;9.004;2023-08-24T00:31:12;99704.75;;;16.50;87.74
75996;BME280;64681;49.738;9.004;2023-08-24T00:33:38;99704.75;;;16.50;87.69
75996;BME280;64681;49.738;9.004;2023-08-24T00:36:05;99694.56;;;16.40;88.02
75996;BME280;64681;49.738;9.004;2023-08-24T00:38:31;99705.81;;;16.45;88.17
75996;BME280;64681;49.738;9.004;2023-08-24T00:40:57;99709.38;;;16.26;88.54
75996;BME280;64681;49.738;9.004;2023-08-24T00:43:25;99698.41;;;16.16;88.69
75996;BME280;64681;49.738;9.004;2023-08-24T00:45:52;99702.91;;;16.08;89.13
75996;BME280;64681;49.738;9.004;2023-08-24T00:48:21;99699.44;;;16.07;89.40
75996;BME280;64681;49.738;9.004;2023-08-24T00:50:52;99695.06;;;16.22;88.40
75996;BME280;64681;49.738;9.004;2023-08-24T00:53:19;99698.53;;;16.23;88.29
75996;BME280;64681;49.738;9.004;2023-08-24T00:55:46;99693.50;;;16.21;88.66
75996;BME280;64681;49.738;9.004;2023-08-24T00:58:13;99695.50;;;16.24;88.65
75996;BME280;64681;49.738;9.004;2023-08-24T01:00:39;99701.66;;;16.25;88.73
75996;BME280;64681;49.738;9.004;2023-08-24T01:03:04;99701.78;;;16.32;88.21
75996;BME280;64681;49.738;9.004;2023-08-24T01:05:30;99698.97;;;16.25;88.89
75996;BME280;64681;49.738;9.004;2023-08-24T01:07:56;99695.78;;;16.19;88.98
75996;BME280;64681;49.738;9.004;2023-08-24T01:10:22;99703.25;;;16.06;89.93
75996;BME280;64681;49.738;9.004;2023-08-24T01:13:07;99691.25;;;15.80;91.63
75996;BME280;64681;49.738;9.004;2023-08-24T01:15:53;99689.91;;;15.90;90.98
75996;BME280;64681;49.738;9.004;2023-08-24T01:18:23;99705.19;;;16.06;89.57
75996;BME280;64681;49.738;9.004;2023-08-24T01:20:53;99720.69;;;16.12;88.98
75996;BME280;64681;49.738;9.004;2023-08-24T01:23:34;99724.09;;;16.09;89.15
75996;BME280;64681;49.738;9.004;2023-08-24T01:28:33;99724.47;;;16.08;89.30
75996;BME280;64681;49.738;9.004;2023-08-24T01:30:59;99722.75;;;15.80;91.53
75996;BME280;64681;49.738;9.004;2023-08-24T01:33:25;99719.72;;;15.81;91.20
75996;BME280;64681;49.738;9.004;2023-08-24T01:35:50;99708.16;;;15.81;91.25
75996;BME280;64681;49.738;9.004;2023-08-24T01:38:16;99710.31;;;15.91;90.68
75996;BME280;64681;49.738;9.004;2023-08-24T01:41:16;99714.25;;;15.97;90.28
75996;BME280;64681;49.738;9.004;2023-08-24T01:43:46;99713.00;;;16.14;88.91
75996;BME280;64681;49.738;9.004;2023-08-24T01:46:17;99722.91;;;16.07;89.29
75996;BME280;64681;49.738;9.004;2023-08-24T01:48:44;99723.41;;;16.12;88.59
75996;BME280;64681;49.738;9.004;2023-08-24T01:51:11;99721.22;;;15.98;89.49
75996;BME280;64681;49.738;9.004;2023-08-24T01:53:40;99714.69;;;15.80;90.69
75996;BME280;64681;49.738;9.004;2023-08-24T01:56:14;99709.44;;;15.87;89.88
75996;BME280;64681;49.738;9.004;2023-08-24T01:58:40;99708.47;;;15.76;90.64
75996;BME280;64681;49.738;9.004;2023-08-24T02:01:07;99699.13;;;15.70;91.07
75996;BME280;64681;49.738;9.004;2023-08-24T02:03:33;99701.03;;;15.69;90.90
75996;BME280;64681;49.738;9.004;2023-08-24T02:05:59;99708.81;;;15.74;89.89
75996;BME280;64681;49.738;9.004;2023-08-24T02:08:24;99705.69;;;15.72;90.50
75996;BME280;64681;49.738;9.004;2023-08-24T02:10:50;99702.28;;;15.75;90.23
75996;BME280;64681;49.738;9.004;2023-08-24T02:13:16;99698.31;;;15.69;90.97
75996;BME280;64681;49.738;9.004;2023-08-24T02:15:41;99696.28;;;15.62;91.31
75996;BME280;64681;49.738;9.004;2023-08-24T02:18:07;99687.78;;;15.60;91.93
75996;BME280;64681;49.738;9.004;2023-08-24T02:20:36;99683.81;;;15.54;92.60
75996;BME280;64681;49.738;9.004;2023-08-24T02:23:07;99683.66;;;15.66;91.13
75996;BME280;64681;49.738;9.004;2023-08-24T02:25:32;99687.50;;;15.46;92.81
75996;BME280;64681;49.738;9.004;2023-08-24T02:28:00;99675.19;;;15.45;92.70
75996;BME280;64681;49.738;9.004;2023-08-24T02:30:26;99672.84;;;15.43;92.96
75996;BME280;64681;49.738;9.004;2023-08-24T02:32:52;99665.41;;;15.37;93.00
75996;BME280;64681;49.738;9.004;2023-08-24T02:35:17;99666.06;;;15.49;92.61
75996;BME280;64681;49.738;9.004;2023-08-24T02:37:44;99659.59;;;15.34;93.66
75996;BME280;64681;49.738;9.004;2023-08-24T02:40:09;99656.16;;;15.34;93.87
75996;BME280;64681;49.738;9.004;2023-08-24T02:42:35;99657.13;;;15.45;92.73
75996;BME280;64681;49.738;9.004;2023-08-24T02:45:01;99670.38;;;15.54;91.95
75996;BME280;64681;49.738;9.004;2023-08-24T02:47:27;99661.38;;;15.46;92.84
75996;BME280;64681;49.738;9.004;2023-08-24T02:49:53;99666.56;;;15.55;92.05
75996;BME280;64681;49.738;9.004;2023-08-24T02:52:18;99658.94;;;15.61;91.17
75996;BME280;64681;49.738;9.004;2023-08-24T02:54:44;99655.13;;;15.62;90.72
75996;BME280;64681;49.738;9.004;2023-08-24T02:57:09;99658.53;;;15.59;90.68
75996;BME280;64681;49.738;9.004;2023-08-24T02:59:35;99651.53;;;15.54;90.62
75996;BME280;64681;49.738;9.004;2023-08-24T03:02:01;99662.00;;;15.59;90.51
75996;BME280;64681;49.738;9.004;2023-08-24T03:04:27;99658.53;;;15.59;90.65
75996;BME280;64681;49.738;9.004;2023-08-24T03:06:52;99650.59;;;15.46;90.99
75996;BME280;64681;49.738;9.004;2023-08-24T03:09:18;99646.16;;;15.54;90.66
75996;BME280;64681;49.738;9.004;2023-08-24T03:11:43;99653.44;;;15.54;90.50
75996;BME280;64681;49.738;9.004;2023-08-24T03:14:09;99654.94;;;15.31;92.53
75996;BME280;64681;49.738;9.004;2023-08-24T03:16:35;99663.84;;;15.35;92.30
75996;BME280;64681;49.738;9.004;2023-08-24T03:19:02;99666.31;;;15.44;91.85
75996;BME280;64681;49.738;9.004;2023-08-24T03:21:27;99661.66;;;15.41;91.42
75996;BME280;64681;49.738;9.004;2023-08-24T03:23:53;99666.06;;;15.49;90.78
75996;BME280;64681;49.738;9.004;2023-08-24T03:26:19;99675.19;;;15.45;91.99
75996;BME280;64681;49.738;9.004;2023-08-24T03:28:45;99664.84;;;15.27;93.16
75996;BME280;64681;49.738;9.004;2023-08-24T03:31:11;99655.56;;;15.44;92.44
75996;BME280;64681;49.738;9.004;2023-08-24T03:33:36;99647.72;;;15.55;92.22
75996;BME280;64681;49.738;9.004;2023-08-24T03:36:02;99656.81;;;15.70;91.47
75996;BME280;64681;49.738;9.004;2023-08-24T03:38:28;99646.16;;;15.77;91.51
75996;BME280;64681;49.738;9.004;2023-08-24T03:41:01;99655.97;;;15.86;91.42
75996;BME280;64681;49.738;9.004;2023-08-24T03:43:31;99650.13;;;16.03;90.36
75996;BME280;64681;49.738;9.004;2023-08-24T03:45:57;99645.66;;;16.14;89.65
75996;BME280;64681;49.738;9.004;2023-08-24T03:48:22;99636.69;;;16.07;89.76
75996;BME280;64681;49.738;9.004;2023-08-24T03:50:48;99618.06;;;16.21;89.12
75996;BME280;64681;49.738;9.004;2023-08-24T03:53:13;99609.66;;;16.26;88.80
75996;BME280;64681;49.738;9.004;2023-08-24T03:55:39;99599.00;;;16.34;88.21
75996;BME280;64681;49.738;9.004;2023-08-24T03:58:04;99583.66;;;16.38;87.88
75996;BME280;64681;49.738;9.004;2023-08-24T04:00:30;99565.63;;;16.42;87.91
75996;BME280;64681;49.738;9.004;2023-08-24T04:02:56;99556.16;;;16.55;86.66
75996;BME280;64681;49.738;9.004;2023-08-24T04:05:21;99550.44;;;16.57;86.38
75996;BME280;64681;49.738;9.004;2023-08-24T04:07:47;99548.63;;;16.38;86.53
75996;BME280;64681;49.738;9.004;2023-08-24T04:10:13;99565.78;;;16.26;88.31
75996;BME280;64681;49.738;9.004;2023-08-24T04:12:38;99566.72;;;16.10;89.75
75996;BME280;64681;49.738;9.004;2023-08-24T04:15:04;99566.16;;;16.24;89.27
75996;BME280;64681;49.738;9.004;2023-08-24T04:17:30;99562.06;;;16.34;88.52
75996;BME280;64681;49.738;9.004;2023-08-24T04:19:56;99550.19;;;16.39;88.72
75996;BME280;64681;49.738;9.004;2023-08-24T04:22:21;99550.16;;;16.35;88.75
75996;BME280;64681;49.738;9.004;2023-08-24T04:24:47;99554.38;;;16.36;88.65
75996;BME280;64681;49.738;9.004;2023-08-24T04:27:12;99552.00;;;16.31;89.36
75996;BME280;64681;49.738;9.004;2023-08-24T04:29:38;99548.53;;;16.30;89.61
75996;BME280;64681;49.738;9.004;2023-08-24T04:32:03;99545.19;;;16.41;89.13
75996;BME280;64681;49.738;9.004;2023-08-24T04:34:29;99543.72;;;16.43;89.19
75996;BME280;64681;49.738;9.004;2023-08-24T04:36:55;99557.28;;;16.51;90.32
75996;BME280;64681;49.738;9.004;2023-08-24T04:39:20;99566.94;;;16.55;89.55
75996;BME280;64681;49.738;9.004;2023-08-24T04:41:46;99567.78;;;16.59;89.05
75996;BME280;64681;49.738;9.004;2023-08-24T04:44:11;99570.94;;;16.65;87.81
75996;BME280;64681;49.738;9.004;2023-08-24T04:46:37;99575.91;;;16.63;87.72
75996;BME280;64681;49.738;9.004;2023-08-24T04:49:03;99578.19;;;16.61;88.02
75996;BME280;64681;49.738;9.004;2023-08-24T04:51:29;99569.06;;;16.69;88.01
75996;BME280;64681;49.738;9.004;2023-08-24T04:53:54;99565.66;;;16.72;87.45
75996;BME280;64681;49.738;9.004;2023-08-24T04:56:20;99566.00;;;16.71;87.31
75996;BME280;64681;49.738;9.004;2023-08-24T04:58:56;99560.97;;;16.69;87.36
75996;BME280;64681;49.738;9.004;2023-08-24T05:01:26;99564.03;;;16.68;87.90
75996;BME280;64681;49.738;9.004;2023-08-24T05:03:53;99560.66;;;16.74;87.75
75996;BME280;64681;49.738;9.004;2023-08-24T05:06:19;99569.25;;;16.84;88.09
75996;BME280;64681;49.738;9.004;2023-08-24T05:08:45;99588.16;;;16.87;87.78
75996;BME280;64681;49.738;9.004;2023-08-24T05:11:19;99573.72;;;16.72;88.78
75996;BME280;64681;49.738;9.004;2023-08-24T05:13:45;99550.31;;;16.80;88.22
75996;BME280;64681;49.738;9.004;2023-08-24T05:16:12;99554.91;;;17.10;86.43
75996;BME280;64681;49.738;9.004;2023-08-24T05:18:38;99564.34;;;17.23;85.54
75996;BME280;64681;49.738;9.004;2023-08-24T05:21:05;99568.53;;;17.21;86.45
75996;BME280;64681;49.738;9.004;2023-08-24T05:23:34;99568.34;;;17.03;87.16
75996;BME280;64681;49.738;9.004;2023-08-24T05:26:02;99569.81;;;16.97;87.12
75996;BME280;64681;49.738;9.004;2023-08-24T05:28:29;99585.00;;;17.12;86.27
75996;BME280;64681;49.738;9.004;2023-08-24T05:30:55;99584.31;;;17.19;86.77
75996;BME280;64681;49.738;9.004;2023-08-24T05:33:22;99595.72;;;17.39;85.13
75996;BME280;64681;49.738;9.004;2023-08-24T05:35:49;99607.47;;;17.58;84.16
75996;BME280;64681;49.738;9.004;2023-08-24T05:38:15;99623.00;;;17.68;84.23
75996;BME280;64681;49.738;9.004;2023-08-24T05:40:42;99628.03;;;17.69;83.74
75996;BME280;64681;49.738;9.004;2023-08-24T05:43:11;99655.28;;;17.53;83.52
75996;BME280;64681;49.738;9.004;2023-08-24T05:45:36;99672.66;;;17.56;83.58
75996;BME280;64681;49.738;9.004;2023-08-24T05:48:04;99699.53;;;17.45;84.57
75996;BME280;64681;49.738;9.004;2023-08-24T05:50:30;99713.97;;;16.99;86.83
75996;BME280;64681;49.738;9.004;2023-08-24T05:52:56;99731.47;;;16.86;88.16
75996;BME280;64681;49.738;9.004;2023-08-24T05:55:22;99730.47;;;16.94;87.42
75996;BME280;64681;49.738;9.004;2023-08-24T05:57:48;99730.72;;;16.85;88.91
75996;BME280;64681;49.738;9.004;2023-08-24T06:00:13;99745.78;;;16.90;89.24
75996;BME280;64681;49.738;9.004;2023-08-24T06:02:39;99747.00;;;17.19;87.24
75996;BME280;64681;49.738;9.004;2023-08-24T06:05:06;99739.81;;;17.27;86.51
75996;BME280;64681;49.738;9.004;2023-08-24T06:07:34;99741.03;;;17.33;86.61
75996;BME280;64681;49.738;9.004;2023-08-24T06:10:00;99738.00;;;17.69;84.86
75996;BME280;64681;49.738;9.004;2023-08-24T06:12:25;99734.28;;;17.50;84.07
75996;BME280;64681;49.738;9.004;2023-08-24T06:14:51;99720.16;;;17.61;85.86
75996;BME280;64681;49.738;9.004;2023-08-24T06:17:16;99714.41;;;18.00;84.60
75996;BME280;64681;49.738;9.004;2023-08-24T06:19:42;99717.41;;;18.32;84.11
75996;BME280;64681;49.738;9.004;2023-08-24T06:22:08;99717.59;;;18.58;83.09
75996;BME280;64681;49.738;9.004;2023-08-24T06:24:35;99701.03;;;18.66;82.86
75996;BME280;64681;49.738;9.004;2023-08-24T06:27:01;99697.81;;;19.02;81.80
75996;BME280;64681;49.738;9.004;2023-08-24T06:29:28;99687.09;;;19.27;79.79
75996;BME280;64681;49.738;9.004;2023-08-24T06:31:54;99693.75;;;19.48;79.83
75996;BME280;64681;49.738;9.004;2023-08-24T06:34:20;99673.66;;;19.60;76.97
75996;BME280;64681;49.738;9.004;2023-08-24T06:36:45;99668.72;;;20.31;74.42
75996;BME280;64681;49.738;9.004;2023-08-24T06:39:12;99667.16;;;20.51;73.45
75996;BME280;64681;49.738;9.004;2023-08-24T06:41:38;99673.38;;;20.37;73.96
75996;BME280;64681;49.738;9.004;2023-08-24T06:44:03;99667.19;;;20.15;74.18
75996;BME280;64681;49.738;9.004;2023-08-24T06:46:29;99672.56;;;19.79;75.13
75996;BME280;64681;49.738;9.004;2023-08-24T06:48:55;99661.38;;;20.13;74.19
75996;BME280;64681;49.738;9.004;2023-08-24T06:51:20;99655.16;;;20.27;72.70
75996;BME280;64681;49.738;9.004;2023-08-24T06:53:46;99653.94;;;20.68;71.66
75996;BME280;64681;49.738;9.004;2023-08-24T06:56:15;99645.75;;;20.97;71.17
75996;BME280;64681;49.738;9.004;2023-08-24T06:58:40;99640.34;;;20.90;70.64
75996;BME280;64681;49.738;9.004;2023-08-24T07:01:06;99631.06;;;20.83;70.60
75996;BME280;64681;49.738;9.004;2023-08-24T07:03:32;99627.63;;;20.61;71.76
75996;BME280;64681;49.738;9.004;2023-08-24T07:06:01;99627.59;;;20.76;71.88
75996;BME280;64681;49.738;9.004;2023-08-24T07:08:26;99622.13;;;20.90;71.90
75996;BME280;64681;49.738;9.004;2023-08-24T07:10:52;99631.03;;;20.94;73.05
75996;BME280;64681;49.738;9.004;2023-08-24T07:13:17;99647.38;;;20.76;72.14
75996;BME280;64681;49.738;9.004;2023-08-24T07:15:43;99648.13;;;20.77;72.38
75996;BME280;64681;49.738;9.004;2023-08-24T07:18:10;99645.50;;;20.08;75.77
75996;BME280;64681;49.738;9.004;2023-08-24T07:20:37;99628.34;;;19.46;78.29
75996;BME280;64681;49.738;9.004;2023-08-24T07:23:03;99616.78;;;19.53;77.87
75996;BME280;64681;49.738;9.004;2023-08-24T07:25:29;99617.56;;;20.44;73.75
75996;BME280;64681;49.738;9.004;2023-08-24T07:27:55;99617.00;;;21.10;71.06
75996;BME280;64681;49.738;9.004;2023-08-24T07:30:25;99620.44;;;21.85;69.15
75996;BME280;64681;49.738;9.004;2023-08-24T07:32:53;99612.19;;;21.96;67.02
75996;BME280;64681;49.738;9.004;2023-08-24T07:35:19;99609.28;;;22.63;64.52
75996;BME280;64681;49.738;9.004;2023-08-24T07:37:47;99608.94;;;22.92;64.72
75996;BME280;64681;49.738;9.004;2023-08-24T07:40:14;99596.47;;;23.53;63.67
75996;BME280;64681;49.738;9.004;2023-08-24T07:42:46;99604.59;;;24.08;62.62
75996;BME280;64681;49.738;9.004;2023-08-24T07:45:13;99608.69;;;24.40;60.60
75996;BME280;64681;49.738;9.004;2023-08-24T07:47:40;99615.56;;;24.88;57.63
75996;BME280;64681;49.738;9.004;2023-08-24T07:50:07;99605.50;;;25.22;56.13
75996;BME280;64681;49.738;9.004;2023-08-24T07:52:33;99600.88;;;25.39;56.35
75996;BME280;64681;49.738;9.004;2023-08-24T07:54:59;99610.88;;;25.62;55.27
75996;BME280;64681;49.738;9.004;2023-08-24T07:57:26;99614.59;;;26.34;54.56
75996;BME280;64681;49.738;9.004;2023-08-24T07:59:52;99612.81;;;26.57;53.67
75996;BME280;64681;49.738;9.004;2023-08-24T08:02:18;99625.38;;;26.84;53.31
75996;BME280;64681;49.738;9.004;2023-08-24T08:04:43;99643.19;;;27.05;53.30
75996;BME280;64681;49.738;9.004;2023-08-24T08:07:09;99643.66;;;27.29;53.35
75996;BME280;64681;49.738;9.004;2023-08-24T08:09:36;99633.13;;;27.67;50.68
75996;BME280;64681;49.738;9.004;2023-08-24T08:12:02;99632.47;;;27.37;49.51
75996;BME280;64681;49.738;9.004;2023-08-24T08:14:29;99629.59;;;27.01;51.35
75996;BME280;64681;49.738;9.004;2023-08-24T08:16:55;99627.53;;;27.31;50.92
75996;BME280;64681;49.738;9.004;2023-08-24T08:19:21;99624.50;;;27.42;48.60
75996;BME280;64681;49.738;9.004;2023-08-24T08:21:47;99596.34;;;27.90;49.84
75996;BME280;64681;49.738;9.004;2023-08-24T08:24:12;99588.63;;;28.33;50.33
75996;BME280;64681;49.738;9.004;2023-08-24T08:26:38;99575.47;;;29.03;50.37
75996;BME280;64681;49.738;9.004;2023-08-24T08:29:04;99561.13;;;29.49;49.93
75996;BME280;64681;49.738;9.004;2023-08-24T08:34:06;99539.16;;;29.18;49.54
75996;BME280;64681;49.738;9.004;2023-08-24T08:36:31;99538.81;;;29.06;49.52
75996;BME280;64681;49.738;9.004;2023-08-24T08:38:59;99525.97;;;27.83;52.28
75996;BME280;64681;49.738;9.004;2023-08-24T08:41:27;99517.88;;;27.79;52.05
75996;BME280;64681;49.738;9.004;2023-08-24T08:43:55;99517.00;;;28.05;52.55
75996;BME280;64681;49.738;9.004;2023-08-24T08:46:21;99514.06;;;29.57;50.29
75996;BME280;64681;49.738;9.004;2023-08-24T08:48:48;99504.84;;;31.20;43.76
75996;BME280;64681;49.738;9.004;2023-08-24T08:51:17;99497.75;;;31.92;43.32
75996;BME280;64681;49.738;9.004;2023-08-24T08:53:43;99503.13;;;31.71;41.55
75996;BME280;64681;49.738;9.004;2023-08-24T08:56:09;99494.91;;;30.37;43.58
75996;BME280;64681;49.738;9.004;2023-08-24T08:58:36;99478.53;;;30.24;45.80
75996;BME280;64681;49.738;9.004;2023-08-24T09:01:04;99470.03;;;29.57;49.48
75996;BME280;64681;49.738;9.004;2023-08-24T09:03:31;99476.81;;;29.24;49.40
75996;BME280;64681;49.738;9.004;2023-08-24T09:05:57;99476.69;;;29.18;50.36
75996;BME280;64681;49.738;9.004;2023-08-24T09:08:25;99457.91;;;28.76;50.37
75996;BME280;64681;49.738;9.004;2023-08-24T09:10:51;99448.59;;;28.10;51.17
75996;BME280;64681;49.738;9.004;2023-08-24T09:13:17;99455.88;;;28.36;51.71
75996;BME280;64681;49.738;9.004;2023-08-24T09:15:43;99457.44;;;28.68;51.08
75996;BME280;64681;49.738;9.004;2023-08-24T09:18:08;99450.59;;;28.82;52.16
75996;BME280;64681;49.738;9.004;2023-08-24T09:20:34;99448.69;;;29.01;51.79
75996;BME280;64681;49.738;9.004;2023-08-24T09:23:00;99453.47;;;29.19;50.75
75996;BME280;64681;49.738;9.004;2023-08-24T09:25:27;99448.75;;;30.04;48.66
75996;BME280;64681;49.738;9.004;2023-08-24T09:28:00;99443.41;;;30.00;45.80
75996;BME280;64681;49.738;9.004;2023-08-24T09:30:30;99447.94;;;30.98;44.26
75996;BME280;64681;49.738;9.004;2023-08-24T09:33:01;99452.19;;;31.33;41.90
75996;BME280;64681;49.738;9.004;2023-08-24T09:35:27;99453.34;;;30.59;42.46
75996;BME280;64681;49.738;9.004;2023-08-24T09:37:52;99454.72;;;29.83;41.84
75996;BME280;64681;49.738;9.004;2023-08-24T09:40:24;99458.53;;;30.05;40.46
75996;BME280;64681;49.738;9.004;2023-08-24T09:42:50;99451.00;;;30.24;39.16
75996;BME280;64681;49.738;9.004;2023-08-24T09:45:15;99434.97;;;30.04;41.83
75996;BME280;64681;49.738;9.004;2023-08-24T09:47:50;99428.66;;;30.65;41.69
75996;BME280;64681;49.738;9.004;2023-08-24T09:50:19;99415.38;;;30.63;39.02
75996;BME280;64681;49.738;9.004;2023-08-24T09:52:46;99401.19;;;30.46;39.70
75996;BME280;64681;49.738;9.004;2023-08-24T09:55:19;99404.44;;;29.36;40.82
75996;BME280;64681;49.738;9.004;2023-08-24T09:57:52;99398.19;;;29.45;42.17
75996;BME280;64681;49.738;9.004;2023-08-24T10:00:19;99390.53;;;29.31;43.55
75996;BME280;64681;49.738;9.004;2023-08-24T10:02:52;99396.88;;;28.90;48.50
75996;BME280;64681;49.738;9.004;2023-08-24T10:05:26;99380.66;;;28.74;47.78
75996;BME280;64681;49.738;9.004;2023-08-24T10:07:55;99382.56;;;28.96;48.79
75996;BME280;64681;49.738;9.004;2023-08-24T10:10:25;99382.03;;;28.79;46.48
75996;BME280;64681;49.738;9.004;2023-08-24T10:12:56;99376.59;;;28.97;43.97
75996;BME280;64681;49.738;9.004;2023-08-24T10:15:22;99370.50;;;29.21;43.91
75996;BME280;64681;49.738;9.004;2023-08-24T10:17:50;99372.78;;;29.50;46.04
75996;BME280;64681;49.738;9.004;2023-08-24T10:20:19;99372.78;;;29.50;47.34
75996;BME280;64681;49.738;9.004;2023-08-24T10:22:46;99368.31;;;29.81;46.10
75996;BME280;64681;49.738;9.004;2023-08-24T10:25:13;99365.75;;;29.59;44.53
75996;BME280;64681;49.738;9.004;2023-08-24T10:27:39;99368.97;;;28.92;44.80
75996;BME280;64681;49.738;9.004;2023-08-24T10:30:13;99360.50;;;28.27;45.57
75996;BME280;64681;49.738;9.004;2023-08-24T10:32:41;99356.34;;;28.54;45.55
75996;BME280;64681;49.738;9.004;2023-08-24T10:35:08;99353.69;;;29.19;45.09
75996;BME280;64681;49.738;9.004;2023-08-24T10:37:34;99345.16;;;29.35;44.14
75996;BME280;64681;49.738;9.004;2023-08-24T10:40:00;99344.09;;;28.55;44.17
75996;BME280;64681;49.738;9.004;2023-08-24T10:42:26;99351.44;;;28.58;47.20
75996;BME280;64681;49.738;9.004;2023-08-24T10:44:52;99356.72;;;28.84;47.72
75996;BME280;64681;49.738;9.004;2023-08-24T10:47:20;99349.84;;;28.79;45.33
75996;BME280;64681;49.738;9.004;2023-08-24T10:54:51;99335.44;;;29.87;42.94
75996;BME280;64681;49.738;9.004;2023-08-24T10:57:25;99330.72;;;30.54;44.20
75996;BME280;64681;49.738;9.004;2023-08-24T11:00:09;99325.97;;;31.03;41.01
75996;BME280;64681;49.738;9.004;2023-08-24T11:02:47;99326.78;;;30.94;41.63
75996;BME280;64681;49.738;9.004;2023-08-24T11:10:24;99310.75;;;30.69;41.79
75996;BME280;64681;49.738;9.004;2023-08-24T11:13:10;99308.44;;;30.43;40.17
75996;BME280;64681;49.738;9.004;2023-08-24T11:15:41;99303.97;;;30.45;44.31
75996;BME280;64681;49.738;9.004;2023-08-24T11:20:46;99293.19;;;30.81;42.96
75996;BME280;64681;49.738;9.004;2023-08-24T11:23:12;99296.00;;;30.47;40.48
75996;BME280;64681;49.738;9.004;2023-08-24T11:25:40;99286.72;;;30.36;41.17
75996;BME280;64681;49.738;9.004;2023-08-24T11:28:06;99279.06;;;31.03;41.57
75996;BME280;64681;49.738;9.004;2023-08-24T11:30:32;99281.94;;;31.09;40.98
75996;BME280;64681;49.738;9.004;2023-08-24T11:32:58;99277.75;;;30.74;39.85
75996;BME280;64681;49.738;9.004;2023-08-24T11:35:25;99277.50;;;30.72;42.70
75996;BME280;64681;49.738;9.004;2023-08-24T11:37:54;99284.84;;;30.42;42.43
75996;BME280;64681;49.738;9.004;2023-08-24T11:40:20;99274.09;;;30.20;41.67
75996;BME280;64681;49.738;9.004;2023-08-24T11:42:46;99267.00;;;30.04;41.62
75996;BME280;64681;49.738;9.004;2023-08-24T11:45:12;99263.38;;;30.22;40.49
75996;BME280;64681;49.738;9.004;2023-08-24T11:47:40;99263.28;;;30.40;42.49
75996;BME280;64681;49.738;9.004;2023-08-24T11:50:08;99252.28;;;30.40;42.14
75996;BME280;64681;49.738;9.004;2023-08-24T11:52:39;99251.41;;;30.58;41.92
75996;BME280;64681;49.738;9.004;2023-08-24T11:55:05;99248.41;;;30.23;41.52
75996;BME280;64681;49.738;9.004;2023-08-24T11:57:35;99245.41;;;30.36;40.53
75996;BME280;64681;49.738;9.004;2023-08-24T12:00:03;99244.28;;;29.94;39.44
75996;BME280;64681;49.738;9.004;2023-08-24T12:02:32;99236.69;;;30.13;41.23
75996;BME280;64681;49.738;9.004;2023-08-24T12:04:58;99236.09;;;30.57;40.39
75996;BME280;64681;49.738;9.004;2023-08-24T12:07:25;99239.50;;;31.06;38.50
75996;BME280;64681;49.738;9.004;2023-08-24T12:09:52;99235.47;;;30.92;38.05
75996;BME280;64681;49.738;9.004;2023-08-24T12:12:19;99225.78;;;30.82;39.14
75996;BME280;64681;49.738;9.004;2023-08-24T12:14:51;99221.25;;;30.94;39.80
75996;BME280;64681;49.738;9.004;2023-08-24T12:17:17;99221.25;;;31.09;37.90
75996;BME280;64681;49.738;9.004;2023-08-24T12:20:00;99209.56;;;31.95;38.02
75996;BME280;64681;49.738;9.004;2023-08-24T12:22:26;99202.22;;;31.56;38.78
75996;BME280;64681;49.738;9.004;2023-08-24T12:24:52;99207.00;;;31.25;40.11
75996;BME280;64681;49.738;9.004;2023-08-24T12:27:19;99199.63;;;31.67;38.31
75996;BME280;64681;49.738;9.004;2023-08-24T12:29:48;99192.84;;;32.04;40.06
75996;BME280;64681;49.738;9.004;2023-08-24T12:32:15;99186.84;;;32.26;37.89
75996;BME280;64681;49.738;9.004;2023-08-24T12:34:42;99188.75;;;31.64;39.06
75996;BME280;64681;49.738;9.004;2023-08-24T12:37:10;99185.38;;;32.25;44.00
75996;BME280;64681;49.738;9.004;2023-08-24T12:39:37;99186.53;;;32.65;41.33
75996;BME280;64681;49.738;9.004;2023-08-24T12:42:03;99179.31;;;32.47;41.71
75996;BME280;64681;49.738;9.004;2023-08-24T12:44:29;99173.28;;;32.96;40.35
75996;BME280;64681;49.738;9.004;2023-08-24T12:46:54;99165.47;;;32.68;39.29
75996;BME280;64681;49.738;9.004;2023-08-24T12:49:20;99167.19;;;32.92;40.10
75996;BME280;64681;49.738;9.004;2023-08-24T12:51:45;99163.72;;;32.44;37.51
75996;BME280;64681;49.738;9.004;2023-08-24T12:54:12;99162.19;;;32.02;41.81
75996;BME280;64681;49.738;9.004;2023-08-24T12:56:39;99152.44;;;32.74;39.20
75996;BME280;64681;49.738;9.004;2023-08-24T12:59:05;99153.47;;;33.03;38.15
75996;BME280;64681;49.738;9.004;2023-08-24T13:01:31;99146.25;;;33.11;44.19
75996;BME280;64681;49.738;9.004;2023-08-24T13:03:56;99146.00;;;32.57;41.38
75996;BME280;64681;49.738;9.004;2023-08-24T13:06:22;99151.97;;;32.49;38.03
75996;BME280;64681;49.738;9.004;2023-08-24T13:08:47;99146.59;;;32.19;44.71
75996;BME280;64681;49.738;9.004;2023-08-24T13:11:13;99147.75;;;32.80;42.16
75996;BME280;64681;49.738;9.004;2023-08-24T13:13:38;99143.97;;;33.10;39.70
75996;BME280;64681;49.738;9.004;2023-08-24T13:16:04;99149.31;;;33.19;39.03
75996;BME280;64681;49.738;9.004;2023-08-24T13:18:29;99148.75;;;33.41;38.04